Terminal Aerodrome Forecast
Issued by NWS

Home | Current Version | Previous Version | Text Only | Print | Product List | Glossary On
Versions: 1 2 3 4 5 6 7 8 9 10 11 12 13
000
FTUS43 KGRB 162320
TAFMTW
TAF
KMTW 162320Z 1700/1724 30005KT P6SM SCT040
      TEMPO 1700/1703 SCT030 BKN040
     FM170300 27008KT P6SM SCT090 SCT150
     FM171200 26011KT P6SM BKN090
     FM171400 25012KT P6SM BKN250 WS014/28035KT
     FM171500 25014G20KT P6SM SCT250 WS020/27040KT
     FM171800 25016G26KT 6SM BLSN SKC WS020/28050KT=

USA.gov is the U.S. government's official web portal to all federal, state and local government web resources and services.